FPO711 LFPG-ENNA
Flight info
| Callsign | FPO711 |
|---|---|
| Flight time | 3h 11m |
| Altitude | 26000 |
| Route | NURMO N874 VEKIN N873 ADUTO/N0431F340 N873 SPY/N0437F350 N873 BAVTA P602 PIPEX M609 BELGU DCT ABUNO T65 GIKAV DCT AGMOL N150 PEMAB DCT NOVRI DCT GAPRO |
| Aircraft | B738/M-SDE2E3FGHIRWXY/LB1 |
Departure
| Time | 2026-05-04 03:10 |
|---|---|
| Airport | Charles de Gaulle International Airport (LFPG) |
Arrival
| Time | 2026-05-04 06:21 |
|---|---|
| Airport | Lakselv Airport, Banak (ENNA) |
| Time | Latitude | Longitude | Altitude | Speed | Heading |
|---|---|---|---|---|---|
| 2026-05-04 02:40 | 49.01323 | 2.50223 | 349 ft | 0 kts | 175° |
| 2026-05-04 03:03 | 49.01338 | 2.50221 | 357 ft | 4 kts | 175° |
| 2026-05-04 03:03 | 49.01364 | 2.50218 | 357 ft | 4 kts | 175° |
| 2026-05-04 03:03 | 49.01391 | 2.50211 | 355 ft | 4 kts | 158° |
| 2026-05-04 03:03 | 49.01412 | 2.50190 | 353 ft | 4 kts | 121° |
| 2026-05-04 03:04 | 49.01417 | 2.50166 | 355 ft | 0 kts | 86° |
| 2026-05-04 03:06 | 49.01419 | 2.50215 | 352 ft | 10 kts | 86° |
| 2026-05-04 03:06 | 49.01425 | 2.50358 | 354 ft | 13 kts | 85° |
| 2026-05-04 03:07 | 49.01434 | 2.50509 | 355 ft | 16 kts | 86° |
| 2026-05-04 03:07 | 49.01439 | 2.50628 | 349 ft | 15 kts | 86° |
| 2026-05-04 03:07 | 49.01446 | 2.50783 | 349 ft | 14 kts | 86° |
| 2026-05-04 03:07 | 49.01454 | 2.50931 | 351 ft | 14 kts | 85° |
| 2026-05-04 03:08 | 49.01465 | 2.51103 | 357 ft | 23 kts | 85° |
| 2026-05-04 03:08 | 49.01469 | 2.51206 | 356 ft | 6 kts | 82° |
| 2026-05-04 03:08 | 49.01549 | 2.51291 | 356 ft | 21 kts | 4° |
| 2026-05-04 03:08 | 49.01696 | 2.51279 | 350 ft | 21 kts | 356° |
| 2026-05-04 03:09 | 49.01841 | 2.51264 | 354 ft | 21 kts | 356° |
| 2026-05-04 03:09 | 49.01979 | 2.51268 | 358 ft | 20 kts | 24° |
| 2026-05-04 03:09 | 49.02057 | 2.51434 | 354 ft | 21 kts | 75° |
| 2026-05-04 03:09 | 49.02090 | 2.51867 | 351 ft | 73 kts | 85° |
| 2026-05-04 03:10 | 49.02148 | 2.52957 | 362 ft | 132 kts | 84° |
| 2026-05-04 03:10 | 49.02240 | 2.54605 | 401 ft | 175 kts | 85° |
| 2026-05-04 03:10 | 49.02394 | 2.56431 | 1097 ft | 168 kts | 81° |
| 2026-05-04 03:10 | 49.02546 | 2.58286 | 1536 ft | 189 kts | 83° |
| 2026-05-04 03:11 | 49.02678 | 2.60365 | 2029 ft | 204 kts | 84° |
| 2026-05-04 03:11 | 49.02840 | 2.62605 | 2407 ft | 221 kts | 85° |
| 2026-05-04 03:11 | 49.02955 | 2.64994 | 2777 ft | 235 kts | 86° |
| 2026-05-04 03:11 | 49.03060 | 2.67520 | 3450 ft | 237 kts | 88° |
| 2026-05-04 03:12 | 49.03145 | 2.70062 | 4027 ft | 250 kts | 88° |
| 2026-05-04 03:12 | 49.03315 | 2.72818 | 4325 ft | 271 kts | 75° |
| 2026-05-04 03:12 | 49.04290 | 2.75291 | 4951 ft | 279 kts | 41° |
| 2026-05-04 03:12 | 49.05995 | 2.76637 | 5654 ft | 279 kts | 10° |
| 2026-05-04 03:13 | 49.07929 | 2.76895 | 6384 ft | 281 kts | 359° |
| 2026-05-04 03:13 | 49.09895 | 2.76875 | 7048 ft | 285 kts | 357° |
| 2026-05-04 03:13 | 49.11889 | 2.76800 | 7726 ft | 289 kts | 357° |
| 2026-05-04 03:13 | 49.13911 | 2.76720 | 8419 ft | 292 kts | 357° |
| 2026-05-04 03:14 | 49.15953 | 2.76649 | 9115 ft | 295 kts | 357° |
| 2026-05-04 03:14 | 49.18017 | 2.76572 | 9794 ft | 299 kts | 356° |
| 2026-05-04 03:14 | 49.20112 | 2.76470 | 10430 ft | 303 kts | 356° |
| 2026-05-04 03:14 | 49.22257 | 2.76374 | 10801 ft | 318 kts | 357° |
| 2026-05-04 03:15 | 49.24543 | 2.76292 | 10977 ft | 338 kts | 357° |
| 2026-05-04 03:15 | 49.26934 | 2.76226 | 11424 ft | 348 kts | 358° |
| 2026-05-04 03:15 | 49.29376 | 2.76175 | 12042 ft | 352 kts | 358° |
| 2026-05-04 03:15 | 49.31804 | 2.76135 | 12724 ft | 355 kts | 358° |
| 2026-05-04 03:16 | 49.34288 | 2.76099 | 13413 ft | 359 kts | 358° |
| 2026-05-04 03:16 | 49.36799 | 2.76066 | 14052 ft | 363 kts | 358° |
| 2026-05-04 03:16 | 49.39336 | 2.76034 | 14702 ft | 366 kts | 357° |
| 2026-05-04 03:16 | 49.41894 | 2.76002 | 15362 ft | 369 kts | 357° |
| 2026-05-04 03:17 | 49.44473 | 2.75970 | 16018 ft | 372 kts | 357° |
| 2026-05-04 03:17 | 49.47077 | 2.75938 | 16653 ft | 376 kts | 356° |
| 2026-05-04 03:17 | 49.49706 | 2.75905 | 17289 ft | 380 kts | 356° |
| 2026-05-04 03:17 | 49.52363 | 2.75872 | 17922 ft | 384 kts | 356° |
| 2026-05-04 03:18 | 49.55048 | 2.75839 | 18499 ft | 388 kts | 356° |
| 2026-05-04 03:18 | 49.57764 | 2.75805 | 19000 ft | 393 kts | 356° |
| 2026-05-04 03:18 | 49.60518 | 2.75771 | 19484 ft | 398 kts | 356° |
| 2026-05-04 03:18 | 49.63304 | 2.75736 | 19983 ft | 403 kts | 356° |
| 2026-05-04 03:19 | 49.66118 | 2.75702 | 20478 ft | 407 kts | 356° |
| 2026-05-04 03:19 | 49.68966 | 2.75667 | 20955 ft | 412 kts | 356° |
| 2026-05-04 03:19 | 49.71851 | 2.75631 | 21442 ft | 416 kts | 356° |
| 2026-05-04 03:19 | 49.74756 | 2.75596 | 21920 ft | 421 kts | 356° |
| 2026-05-04 03:20 | 49.77701 | 2.75559 | 22398 ft | 425 kts | 356° |
| 2026-05-04 03:20 | 49.80672 | 2.75565 | 22853 ft | 431 kts | 1° |
| 2026-05-04 03:20 | 49.83630 | 2.76558 | 23271 ft | 441 kts | 21° |
| 2026-05-04 03:20 | 49.86321 | 2.78873 | 23736 ft | 445 kts | 33° |
| 2026-05-04 03:21 | 49.88905 | 2.81529 | 24140 ft | 448 kts | 33° |
| 2026-05-04 03:21 | 49.91521 | 2.84197 | 24508 ft | 452 kts | 32° |
| 2026-05-04 03:21 | 49.94174 | 2.86850 | 24893 ft | 455 kts | 32° |
| 2026-05-04 03:21 | 49.96846 | 2.89488 | 25281 ft | 457 kts | 32° |
| 2026-05-04 03:22 | 49.99546 | 2.92151 | 25665 ft | 460 kts | 32° |
| 2026-05-04 03:22 | 50.02257 | 2.94827 | 26031 ft | 463 kts | 32° |
| 2026-05-04 03:22 | 50.04989 | 2.97522 | 26387 ft | 466 kts | 31° |
| 2026-05-04 03:22 | 50.07733 | 3.00233 | 26758 ft | 469 kts | 31° |
| 2026-05-04 03:23 | 50.10493 | 3.02964 | 27117 ft | 472 kts | 31° |
| 2026-05-04 03:23 | 50.13267 | 3.05715 | 27466 ft | 474 kts | 31° |
| 2026-05-04 03:23 | 50.16061 | 3.08489 | 27805 ft | 477 kts | 31° |
| 2026-05-04 03:23 | 50.18868 | 3.11280 | 28143 ft | 479 kts | 31° |
| 2026-05-04 03:24 | 50.21690 | 3.14087 | 28480 ft | 482 kts | 31° |
| 2026-05-04 03:24 | 50.24618 | 3.16630 | 28789 ft | 483 kts | 23° |
| 2026-05-04 03:24 | 50.27691 | 3.18786 | 29115 ft | 485 kts | 21° |
| 2026-05-04 03:24 | 50.30797 | 3.20871 | 29426 ft | 487 kts | 21° |
| 2026-05-04 03:25 | 50.33924 | 3.22978 | 29706 ft | 490 kts | 21° |
| 2026-05-04 03:25 | 50.37052 | 3.25135 | 29997 ft | 493 kts | 21° |
| 2026-05-04 03:25 | 50.40175 | 3.27323 | 30245 ft | 495 kts | 22° |
| 2026-05-04 03:25 | 50.43333 | 3.29674 | 30520 ft | 497 kts | 24° |
| 2026-05-04 03:26 | 50.46383 | 3.32111 | 30795 ft | 499 kts | 25° |
| 2026-05-04 03:26 | 50.49518 | 3.34628 | 31067 ft | 500 kts | 24° |
| 2026-05-04 03:26 | 50.52633 | 3.37061 | 31320 ft | 500 kts | 22° |
| 2026-05-04 03:26 | 50.55799 | 3.39325 | 31605 ft | 500 kts | 21° |
| 2026-05-04 03:27 | 50.58988 | 3.41488 | 31971 ft | 498 kts | 20° |
| 2026-05-04 03:27 | 50.62169 | 3.43613 | 32366 ft | 495 kts | 19° |
| 2026-05-04 03:27 | 50.65332 | 3.45736 | 32737 ft | 494 kts | 20° |
| 2026-05-04 03:27 | 50.68485 | 3.47877 | 33067 ft | 493 kts | 20° |
| 2026-05-04 03:28 | 50.71623 | 3.50029 | 33389 ft | 492 kts | 20° |
| 2026-05-04 03:28 | 50.74714 | 3.52166 | 33725 ft | 491 kts | 20° |
| 2026-05-04 03:28 | 50.77833 | 3.54329 | 34048 ft | 489 kts | 20° |
| 2026-05-04 03:28 | 50.80937 | 3.56486 | 34311 ft | 488 kts | 20° |
| 2026-05-04 03:29 | 50.84049 | 3.58650 | 34531 ft | 488 kts | 20° |
| 2026-05-04 03:29 | 50.87155 | 3.60810 | 34735 ft | 488 kts | 20° |
| 2026-05-04 03:29 | 50.90256 | 3.62970 | 34980 ft | 487 kts | 20° |
| 2026-05-04 03:29 | 50.93353 | 3.65144 | 35213 ft | 486 kts | 21° |
| 2026-05-04 03:30 | 50.96435 | 3.67351 | 35427 ft | 486 kts | 21° |
| 2026-05-04 03:30 | 50.99514 | 3.69579 | 35638 ft | 486 kts | 22° |
| 2026-05-04 03:30 | 51.02589 | 3.71811 | 35853 ft | 485 kts | 22° |
| 2026-05-04 03:30 | 51.05657 | 3.74038 | 36064 ft | 485 kts | 22° |
| 2026-05-04 03:31 | 51.08725 | 3.76262 | 36272 ft | 484 kts | 22° |
| 2026-05-04 03:31 | 51.11792 | 3.78486 | 36455 ft | 484 kts | 22° |
| 2026-05-04 03:31 | 51.14859 | 3.80711 | 36641 ft | 484 kts | 22° |
| 2026-05-04 03:31 | 51.17924 | 3.82938 | 36827 ft | 484 kts | 22° |
| 2026-05-04 03:32 | 51.20990 | 3.85168 | 36950 ft | 485 kts | 22° |
| 2026-05-04 03:32 | 51.27168 | 3.89671 | 36948 ft | 491 kts | 22° |
| 2026-05-04 03:33 | 51.33418 | 3.94238 | 36948 ft | 497 kts | 22° |
| 2026-05-04 03:33 | 51.39739 | 3.98872 | 36949 ft | 502 kts | 22° |
| 2026-05-04 03:34 | 51.45033 | 4.02764 | 36947 ft | 505 kts | 22° |
| 2026-05-04 03:34 | 51.51441 | 4.07493 | 36946 ft | 508 kts | 22° |
| 2026-05-04 03:35 | 51.58910 | 4.13046 | 36942 ft | 510 kts | 23° |
| 2026-05-04 03:35 | 51.64303 | 4.17068 | 36939 ft | 510 kts | 22° |
| 2026-05-04 03:36 | 51.70732 | 4.21874 | 36942 ft | 509 kts | 22° |
| 2026-05-04 03:36 | 51.77155 | 4.26686 | 36940 ft | 509 kts | 22° |
| 2026-05-04 03:37 | 51.83573 | 4.31492 | 36937 ft | 508 kts | 22° |
| 2026-05-04 03:37 | 51.89969 | 4.36295 | 36942 ft | 507 kts | 22° |
| 2026-05-04 03:38 | 51.96360 | 4.41112 | 36940 ft | 506 kts | 22° |
| 2026-05-04 03:38 | 52.02670 | 4.45884 | 36939 ft | 505 kts | 22° |
| 2026-05-04 03:39 | 52.09035 | 4.50714 | 36944 ft | 504 kts | 22° |
| 2026-05-04 03:39 | 52.15385 | 4.55547 | 36939 ft | 503 kts | 22° |
| 2026-05-04 03:40 | 52.21720 | 4.60383 | 36940 ft | 503 kts | 22° |
| 2026-05-04 03:40 | 52.28043 | 4.65236 | 36942 ft | 502 kts | 22° |
| 2026-05-04 03:41 | 52.34347 | 4.70111 | 36938 ft | 501 kts | 22° |
| 2026-05-04 03:41 | 52.40638 | 4.74990 | 36940 ft | 500 kts | 23° |
| 2026-05-04 03:42 | 52.46921 | 4.79875 | 36937 ft | 499 kts | 23° |
| 2026-05-04 03:42 | 52.53008 | 4.85354 | 36937 ft | 502 kts | 35° |
| 2026-05-04 03:43 | 52.58017 | 4.93319 | 36952 ft | 503 kts | 51° |
| 2026-05-04 03:43 | 52.62268 | 5.02476 | 36944 ft | 503 kts | 52° |
| 2026-05-04 03:44 | 52.66546 | 5.11597 | 36951 ft | 504 kts | 51° |
| 2026-05-04 03:44 | 52.70879 | 5.20678 | 36957 ft | 504 kts | 51° |
| 2026-05-04 03:45 | 52.75185 | 5.29786 | 36952 ft | 504 kts | 51° |
| 2026-05-04 03:45 | 52.79594 | 5.38782 | 36954 ft | 504 kts | 51° |
| 2026-05-04 03:46 | 52.83877 | 5.47848 | 36955 ft | 504 kts | 52° |
| 2026-05-04 03:46 | 52.88136 | 5.57054 | 36947 ft | 504 kts | 52° |
| 2026-05-04 03:47 | 52.92405 | 5.66264 | 36943 ft | 504 kts | 52° |
| 2026-05-04 03:47 | 52.96677 | 5.75474 | 36947 ft | 504 kts | 52° |
| 2026-05-04 03:48 | 53.00944 | 5.84700 | 36945 ft | 504 kts | 52° |
| 2026-05-04 03:48 | 53.05202 | 5.93945 | 36945 ft | 504 kts | 52° |
| 2026-05-04 03:49 | 53.09454 | 6.03208 | 36944 ft | 503 kts | 52° |
| 2026-05-04 03:49 | 53.13702 | 6.12477 | 36943 ft | 503 kts | 52° |
| 2026-05-04 03:50 | 53.17947 | 6.21745 | 36943 ft | 503 kts | 52° |
| 2026-05-04 03:50 | 53.22183 | 6.31026 | 36942 ft | 503 kts | 52° |
| 2026-05-04 03:51 | 53.26411 | 6.40332 | 36938 ft | 503 kts | 52° |
| 2026-05-04 03:51 | 53.30629 | 6.49647 | 36938 ft | 503 kts | 52° |
| 2026-05-04 03:52 | 53.34882 | 6.58915 | 36936 ft | 502 kts | 48° |
| 2026-05-04 03:52 | 53.39915 | 6.66980 | 36948 ft | 500 kts | 40° |
| 2026-05-04 03:53 | 53.45128 | 6.74718 | 36946 ft | 501 kts | 41° |
| 2026-05-04 03:53 | 53.50265 | 6.82603 | 36946 ft | 501 kts | 41° |
| 2026-05-04 03:54 | 53.55376 | 6.90557 | 36945 ft | 501 kts | 41° |
| 2026-05-04 03:54 | 53.60595 | 6.98298 | 36947 ft | 500 kts | 38° |
| 2026-05-04 03:55 | 53.65962 | 7.05746 | 36946 ft | 500 kts | 38° |
| 2026-05-04 03:55 | 53.71297 | 7.13278 | 36946 ft | 500 kts | 39° |
| 2026-05-04 03:56 | 53.76603 | 7.20883 | 36946 ft | 500 kts | 39° |
| 2026-05-04 03:56 | 53.81889 | 7.28545 | 36947 ft | 501 kts | 39° |
| 2026-05-04 03:57 | 53.87444 | 7.35572 | 36949 ft | 498 kts | 27° |
| 2026-05-04 03:57 | 53.93803 | 7.40022 | 36959 ft | 494 kts | 16° |
| 2026-05-04 03:58 | 54.03807 | 7.43703 | 36954 ft | 490 kts | 6° |
| 2026-05-04 03:58 | 54.10535 | 7.45719 | 36951 ft | 491 kts | 7° |
| 2026-05-04 03:59 | 54.17259 | 7.47852 | 36941 ft | 492 kts | 7° |
| 2026-05-04 03:59 | 54.23994 | 7.50002 | 36956 ft | 492 kts | 7° |
| 2026-05-04 04:00 | 54.30730 | 7.52139 | 36953 ft | 493 kts | 7° |
| 2026-05-04 04:00 | 54.37479 | 7.54287 | 36955 ft | 493 kts | 7° |
| 2026-05-04 04:01 | 54.44228 | 7.56445 | 36953 ft | 493 kts | 7° |
| 2026-05-04 04:01 | 54.50933 | 7.58597 | 36952 ft | 493 kts | 7° |
| 2026-05-04 04:02 | 54.57727 | 7.60785 | 36946 ft | 494 kts | 7° |
| 2026-05-04 04:02 | 54.64433 | 7.62952 | 36951 ft | 494 kts | 7° |
| 2026-05-04 04:03 | 54.71179 | 7.65139 | 36947 ft | 493 kts | 7° |
| 2026-05-04 04:03 | 54.77929 | 7.67342 | 36943 ft | 493 kts | 7° |
| 2026-05-04 04:04 | 54.84666 | 7.69550 | 36946 ft | 493 kts | 7° |
| 2026-05-04 04:04 | 54.91402 | 7.71763 | 36938 ft | 492 kts | 7° |
| 2026-05-04 04:05 | 54.98129 | 7.74083 | 36934 ft | 494 kts | 12° |
| 2026-05-04 04:05 | 55.04480 | 7.78739 | 36948 ft | 499 kts | 27° |
| 2026-05-04 04:06 | 55.10464 | 7.84906 | 36929 ft | 500 kts | 28° |
| 2026-05-04 04:06 | 55.16442 | 7.91100 | 36936 ft | 499 kts | 28° |
| 2026-05-04 04:07 | 55.22453 | 7.97212 | 36931 ft | 500 kts | 28° |
| 2026-05-04 04:07 | 55.28471 | 8.03306 | 36924 ft | 500 kts | 28° |
| 2026-05-04 04:08 | 55.34487 | 8.09426 | 36925 ft | 500 kts | 28° |
| 2026-05-04 04:08 | 55.40498 | 8.15565 | 36914 ft | 499 kts | 27° |
| 2026-05-04 04:09 | 55.46782 | 8.20611 | 36922 ft | 496 kts | 18° |
| 2026-05-04 04:09 | 55.53232 | 8.24949 | 36909 ft | 496 kts | 18° |
| 2026-05-04 04:10 | 55.59656 | 8.29390 | 36905 ft | 495 kts | 14° |
| 2026-05-04 04:10 | 55.66348 | 8.31682 | 36923 ft | 488 kts | 3° |
| 2026-05-04 04:11 | 55.73098 | 8.33057 | 36910 ft | 488 kts | 2° |
| 2026-05-04 04:11 | 55.79849 | 8.34497 | 36910 ft | 489 kts | 3° |
| 2026-05-04 04:12 | 55.86553 | 8.36035 | 36912 ft | 489 kts | 4° |
| 2026-05-04 04:12 | 55.93303 | 8.37615 | 36904 ft | 489 kts | 3° |
| 2026-05-04 04:13 | 56.00053 | 8.39193 | 36908 ft | 489 kts | 3° |
| 2026-05-04 04:13 | 56.06805 | 8.40772 | 36903 ft | 489 kts | 3° |
| 2026-05-04 04:14 | 56.13557 | 8.42358 | 36899 ft | 490 kts | 3° |
| 2026-05-04 04:14 | 56.20316 | 8.43956 | 36895 ft | 490 kts | 3° |
| 2026-05-04 04:15 | 56.27072 | 8.45558 | 36898 ft | 490 kts | 3° |
| 2026-05-04 04:15 | 56.33828 | 8.47165 | 36893 ft | 490 kts | 3° |
| 2026-05-04 04:16 | 56.40581 | 8.48777 | 36888 ft | 490 kts | 3° |
| 2026-05-04 04:16 | 56.47339 | 8.50397 | 36879 ft | 490 kts | 3° |
| 2026-05-04 04:17 | 56.54099 | 8.52022 | 36882 ft | 490 kts | 3° |
| 2026-05-04 04:17 | 56.60856 | 8.53653 | 36872 ft | 490 kts | 3° |
| 2026-05-04 04:18 | 56.67613 | 8.55290 | 36878 ft | 490 kts | 3° |
| 2026-05-04 04:18 | 56.74371 | 8.56933 | 36867 ft | 490 kts | 3° |
| 2026-05-04 04:19 | 56.81131 | 8.58582 | 36866 ft | 490 kts | 3° |
| 2026-05-04 04:19 | 56.86744 | 8.59956 | 36857 ft | 490 kts | 3° |
| 2026-05-04 04:20 | 56.94640 | 8.61897 | 36856 ft | 490 kts | 3° |
| 2026-05-04 04:20 | 57.00253 | 8.63281 | 36848 ft | 490 kts | 3° |
| 2026-05-04 04:21 | 57.08140 | 8.65233 | 36839 ft | 489 kts | 3° |
| 2026-05-04 04:21 | 57.13750 | 8.66627 | 36836 ft | 489 kts | 3° |
| 2026-05-04 04:22 | 57.20491 | 8.68307 | 36835 ft | 489 kts | 3° |
| 2026-05-04 04:22 | 57.27228 | 8.69992 | 36820 ft | 488 kts | 3° |
| 2026-05-04 04:23 | 57.33961 | 8.71683 | 36822 ft | 488 kts | 3° |
| 2026-05-04 04:23 | 57.40689 | 8.73379 | 36810 ft | 488 kts | 3° |
| 2026-05-04 04:24 | 57.47411 | 8.75079 | 36805 ft | 488 kts | 3° |
| 2026-05-04 04:24 | 57.54134 | 8.76786 | 36799 ft | 488 kts | 3° |
| 2026-05-04 04:25 | 57.60859 | 8.78500 | 36798 ft | 487 kts | 3° |
| 2026-05-04 04:25 | 57.67579 | 8.80219 | 36788 ft | 487 kts | 3° |
| 2026-05-04 04:26 | 57.74298 | 8.81683 | 36789 ft | 486 kts | 1° |
| 2026-05-04 04:26 | 57.81028 | 8.82951 | 36783 ft | 486 kts | 0° |
| 2026-05-04 04:27 | 57.87758 | 8.84242 | 36779 ft | 486 kts | 1° |
| 2026-05-04 04:27 | 57.94483 | 8.85578 | 36772 ft | 486 kts | 1° |
| 2026-05-04 04:28 | 58.01213 | 8.86936 | 36775 ft | 486 kts | 1° |
| 2026-05-04 04:28 | 58.07940 | 8.88300 | 36770 ft | 486 kts | 1° |
| 2026-05-04 04:29 | 58.14668 | 8.89666 | 36771 ft | 486 kts | 1° |
| 2026-05-04 04:29 | 58.21356 | 8.91029 | 36767 ft | 486 kts | 1° |
| 2026-05-04 04:30 | 58.28081 | 8.92405 | 36770 ft | 486 kts | 1° |
| 2026-05-04 04:30 | 58.34810 | 8.93787 | 36764 ft | 486 kts | 1° |
| 2026-05-04 04:31 | 58.41539 | 8.95174 | 36767 ft | 486 kts | 1° |
| 2026-05-04 04:31 | 58.48269 | 8.96566 | 36761 ft | 486 kts | 1° |
| 2026-05-04 04:32 | 58.54994 | 8.97963 | 36766 ft | 486 kts | 1° |
| 2026-05-04 04:32 | 58.61726 | 8.99367 | 36767 ft | 486 kts | 1° |
| 2026-05-04 04:33 | 58.68453 | 9.00775 | 36769 ft | 486 kts | 1° |
| 2026-05-04 04:33 | 58.75180 | 9.02188 | 36855 ft | 487 kts | 1° |
| 2026-05-04 04:34 | 58.81916 | 9.04026 | 36756 ft | 494 kts | 11° |
| 2026-05-04 04:34 | 58.88239 | 9.09391 | 36763 ft | 503 kts | 31° |
| 2026-05-04 04:35 | 58.93778 | 9.17723 | 36769 ft | 506 kts | 37° |
| 2026-05-04 04:35 | 58.99210 | 9.26416 | 36758 ft | 506 kts | 36° |
| 2026-05-04 04:36 | 59.04681 | 9.34995 | 36762 ft | 506 kts | 36° |
| 2026-05-04 04:36 | 59.10179 | 9.43528 | 36763 ft | 506 kts | 36° |
| 2026-05-04 04:37 | 59.21271 | 9.60420 | 36755 ft | 504 kts | 30° |
| 2026-05-04 04:38 | 59.27174 | 9.67784 | 36763 ft | 504 kts | 29° |
| 2026-05-04 04:38 | 59.33195 | 9.74729 | 36756 ft | 500 kts | 20° |
| 2026-05-04 04:39 | 59.39762 | 9.78772 | 36766 ft | 493 kts | 9° |
| 2026-05-04 04:39 | 59.46433 | 9.81897 | 36763 ft | 493 kts | 9° |
| 2026-05-04 04:40 | 59.53055 | 9.85054 | 36761 ft | 494 kts | 9° |
| 2026-05-04 04:40 | 59.59726 | 9.88352 | 36758 ft | 494 kts | 9° |
| 2026-05-04 04:41 | 59.66400 | 9.91705 | 36751 ft | 495 kts | 9° |
| 2026-05-04 04:41 | 59.73072 | 9.95074 | 36758 ft | 495 kts | 9° |
| 2026-05-04 04:42 | 59.79750 | 9.98453 | 36764 ft | 495 kts | 9° |
| 2026-05-04 04:42 | 59.86435 | 10.01846 | 36754 ft | 496 kts | 9° |
| 2026-05-04 04:43 | 59.93119 | 10.05254 | 36761 ft | 496 kts | 9° |
| 2026-05-04 04:43 | 59.99848 | 10.08698 | 36754 ft | 496 kts | 9° |
| 2026-05-04 04:44 | 60.06538 | 10.12138 | 36745 ft | 496 kts | 9° |
| 2026-05-04 04:44 | 60.13180 | 10.15568 | 36745 ft | 496 kts | 9° |
| 2026-05-04 04:45 | 60.19858 | 10.19030 | 36757 ft | 496 kts | 9° |
| 2026-05-04 04:47 | 60.43403 | 10.29385 | 36741 ft | 494 kts | 5° |
| 2026-05-04 04:47 | 60.50166 | 10.31867 | 36738 ft | 495 kts | 5° |
| 2026-05-04 04:48 | 60.56938 | 10.34445 | 36742 ft | 495 kts | 6° |
| 2026-05-04 04:49 | 60.73892 | 10.41008 | 36725 ft | 497 kts | 6° |
| 2026-05-04 04:49 | 60.80684 | 10.43651 | 36723 ft | 497 kts | 6° |
| 2026-05-04 04:50 | 60.87470 | 10.46303 | 36711 ft | 497 kts | 6° |
| 2026-05-04 04:50 | 60.94257 | 10.48967 | 36719 ft | 497 kts | 6° |
| 2026-05-04 04:51 | 61.01041 | 10.51642 | 36713 ft | 496 kts | 6° |
| 2026-05-04 04:51 | 61.07826 | 10.54329 | 36714 ft | 497 kts | 6° |
| 2026-05-04 04:52 | 61.14617 | 10.57029 | 36712 ft | 497 kts | 6° |
| 2026-05-04 04:52 | 61.21321 | 10.61174 | 36705 ft | 506 kts | 21° |
| 2026-05-04 04:53 | 61.27291 | 10.69092 | 36716 ft | 513 kts | 36° |
| 2026-05-04 04:53 | 61.32825 | 10.78505 | 36701 ft | 514 kts | 37° |
| 2026-05-04 04:54 | 61.38354 | 10.87994 | 36691 ft | 515 kts | 36° |
| 2026-05-04 04:54 | 61.43914 | 10.97398 | 36694 ft | 515 kts | 36° |
| 2026-05-04 04:55 | 61.49499 | 11.06801 | 36693 ft | 515 kts | 36° |
| 2026-05-04 04:55 | 61.55078 | 11.16234 | 36681 ft | 516 kts | 36° |
| 2026-05-04 04:56 | 61.60655 | 11.25718 | 36685 ft | 516 kts | 36° |
| 2026-05-04 04:56 | 61.66223 | 11.35241 | 36688 ft | 516 kts | 36° |
| 2026-05-04 04:57 | 61.71789 | 11.44805 | 36674 ft | 516 kts | 37° |
| 2026-05-04 04:57 | 61.77348 | 11.54402 | 36669 ft | 516 kts | 37° |
| 2026-05-04 04:58 | 61.82903 | 11.64039 | 36677 ft | 517 kts | 37° |
| 2026-05-04 04:58 | 61.88453 | 11.73715 | 36665 ft | 517 kts | 37° |
| 2026-05-04 04:59 | 61.93997 | 11.83425 | 36667 ft | 517 kts | 37° |
| 2026-05-04 04:59 | 61.99585 | 11.93019 | 36657 ft | 515 kts | 32° |
| 2026-05-04 05:00 | 62.05830 | 12.00200 | 36669 ft | 509 kts | 20° |
| 2026-05-04 05:01 | 62.15481 | 12.09504 | 36660 ft | 510 kts | 21° |
| 2026-05-04 05:01 | 62.21913 | 12.15946 | 36661 ft | 510 kts | 21° |
| 2026-05-04 05:02 | 62.28331 | 12.22466 | 36660 ft | 511 kts | 21° |
| 2026-05-04 05:02 | 62.34688 | 12.29351 | 36662 ft | 513 kts | 26° |
| 2026-05-04 05:03 | 62.40818 | 12.37309 | 36665 ft | 515 kts | 28° |
| 2026-05-04 05:04 | 62.52024 | 12.52250 | 36660 ft | 515 kts | 28° |
| 2026-05-04 05:04 | 62.58151 | 12.60307 | 36666 ft | 515 kts | 28° |
| 2026-05-04 05:06 | 62.82658 | 12.92889 | 36659 ft | 516 kts | 28° |
| 2026-05-04 05:07 | 62.88775 | 13.01125 | 36661 ft | 516 kts | 28° |
| 2026-05-04 05:07 | 62.95021 | 13.08811 | 36655 ft | 512 kts | 18° |
| 2026-05-04 05:09 | 63.25493 | 13.28097 | 36655 ft | 508 kts | 11° |
| 2026-05-04 05:10 | 63.32279 | 13.32459 | 36663 ft | 508 kts | 12° |
| 2026-05-04 05:10 | 63.39070 | 13.36838 | 36665 ft | 508 kts | 12° |
| 2026-05-04 05:11 | 63.45852 | 13.41228 | 36662 ft | 508 kts | 12° |
| 2026-05-04 05:11 | 63.52645 | 13.45646 | 36660 ft | 508 kts | 12° |
| 2026-05-04 05:12 | 63.59435 | 13.50086 | 36663 ft | 508 kts | 12° |
| 2026-05-04 05:12 | 63.66218 | 13.54542 | 36660 ft | 508 kts | 12° |
| 2026-05-04 05:13 | 63.73009 | 13.59026 | 36656 ft | 508 kts | 12° |
| 2026-05-04 05:13 | 63.79794 | 13.63528 | 36653 ft | 508 kts | 12° |
| 2026-05-04 05:14 | 63.86575 | 13.68053 | 36656 ft | 508 kts | 12° |
| 2026-05-04 05:14 | 63.93362 | 13.72613 | 36650 ft | 509 kts | 12° |
| 2026-05-04 05:15 | 64.00139 | 13.77252 | 36646 ft | 510 kts | 15° |
| 2026-05-04 05:15 | 64.06493 | 13.84678 | 36636 ft | 520 kts | 34° |
| 2026-05-04 05:16 | 64.12132 | 13.95064 | 36649 ft | 521 kts | 37° |
| 2026-05-04 05:16 | 64.17686 | 14.05726 | 36650 ft | 521 kts | 37° |
| 2026-05-04 05:17 | 64.23284 | 14.16336 | 36641 ft | 522 kts | 37° |
| 2026-05-04 05:17 | 64.28910 | 14.26910 | 36628 ft | 522 kts | 37° |
| 2026-05-04 05:18 | 64.34528 | 14.37501 | 36636 ft | 522 kts | 37° |
| 2026-05-04 05:18 | 64.40143 | 14.48155 | 36633 ft | 522 kts | 37° |
| 2026-05-04 05:19 | 64.45741 | 14.58846 | 36629 ft | 522 kts | 37° |
| 2026-05-04 05:19 | 64.51336 | 14.69593 | 36625 ft | 522 kts | 37° |
| 2026-05-04 05:20 | 64.56916 | 14.80369 | 36639 ft | 521 kts | 37° |
| 2026-05-04 05:20 | 64.62486 | 14.91185 | 36635 ft | 522 kts | 37° |
| 2026-05-04 05:21 | 64.68054 | 15.02051 | 36638 ft | 522 kts | 37° |
| 2026-05-04 05:21 | 64.73758 | 15.12253 | 36624 ft | 517 kts | 26° |
| 2026-05-04 05:22 | 64.80100 | 15.20071 | 36635 ft | 514 kts | 23° |
| 2026-05-04 05:22 | 64.86493 | 15.27626 | 36631 ft | 515 kts | 23° |
| 2026-05-04 05:23 | 64.92857 | 15.35369 | 36634 ft | 515 kts | 24° |
| 2026-05-04 05:23 | 64.99238 | 15.43297 | 36625 ft | 515 kts | 24° |
| 2026-05-04 05:24 | 65.05529 | 15.51166 | 36624 ft | 514 kts | 24° |
| 2026-05-04 05:24 | 65.11851 | 15.59103 | 36615 ft | 514 kts | 24° |
| 2026-05-04 05:25 | 65.18161 | 15.67059 | 36626 ft | 513 kts | 24° |
| 2026-05-04 05:25 | 65.24466 | 15.75056 | 36619 ft | 513 kts | 24° |
| 2026-05-04 05:26 | 65.30766 | 15.83092 | 36620 ft | 513 kts | 25° |
| 2026-05-04 05:26 | 65.37057 | 15.91161 | 36634 ft | 513 kts | 25° |
| 2026-05-04 05:28 | 65.62223 | 16.23889 | 36627 ft | 513 kts | 25° |
| 2026-05-04 05:29 | 65.68454 | 16.32104 | 36626 ft | 513 kts | 25° |
| 2026-05-04 05:29 | 65.74721 | 16.40413 | 36625 ft | 513 kts | 25° |
| 2026-05-04 05:31 | 65.99725 | 16.74033 | 36621 ft | 513 kts | 25° |
| 2026-05-04 05:32 | 66.05963 | 16.82536 | 36619 ft | 512 kts | 25° |
| 2026-05-04 05:33 | 66.15302 | 16.95342 | 36608 ft | 512 kts | 26° |
| 2026-05-04 05:33 | 66.21517 | 17.03923 | 36624 ft | 511 kts | 26° |
| 2026-05-04 05:34 | 66.27717 | 17.12533 | 36612 ft | 511 kts | 26° |
| 2026-05-04 05:34 | 66.33872 | 17.21131 | 36611 ft | 511 kts | 26° |
| 2026-05-04 05:35 | 66.40056 | 17.29818 | 36629 ft | 510 kts | 26° |
| 2026-05-04 05:35 | 66.46238 | 17.38553 | 36616 ft | 510 kts | 26° |
| 2026-05-04 05:36 | 66.52413 | 17.47328 | 36620 ft | 510 kts | 26° |
| 2026-05-04 05:36 | 66.58586 | 17.56149 | 36609 ft | 510 kts | 26° |
| 2026-05-04 05:37 | 66.64747 | 17.65006 | 36620 ft | 510 kts | 26° |
| 2026-05-04 05:37 | 66.70897 | 17.73914 | 36625 ft | 510 kts | 26° |
| 2026-05-04 05:38 | 66.80108 | 17.87357 | 36619 ft | 509 kts | 27° |
| 2026-05-04 05:38 | 66.86242 | 17.96374 | 36617 ft | 509 kts | 27° |
| 2026-05-04 05:39 | 66.95428 | 18.09974 | 36615 ft | 509 kts | 27° |
| 2026-05-04 05:40 | 67.04592 | 18.23662 | 36611 ft | 508 kts | 27° |
| 2026-05-04 05:40 | 67.10689 | 18.32837 | 36622 ft | 508 kts | 27° |
| 2026-05-04 05:41 | 67.16780 | 18.42057 | 36623 ft | 508 kts | 27° |
| 2026-05-04 05:41 | 67.22866 | 18.51323 | 36620 ft | 508 kts | 27° |
| 2026-05-04 05:42 | 67.28940 | 18.60626 | 36610 ft | 508 kts | 27° |
| 2026-05-04 05:42 | 67.35010 | 18.69979 | 36615 ft | 507 kts | 28° |
| 2026-05-04 05:43 | 67.41066 | 18.79367 | 36619 ft | 507 kts | 28° |
| 2026-05-04 05:45 | 67.65207 | 19.17355 | 36611 ft | 506 kts | 28° |
| 2026-05-04 05:47 | 67.88201 | 19.54390 | 36596 ft | 503 kts | 29° |
| 2026-05-04 05:47 | 67.95166 | 19.65779 | 36585 ft | 503 kts | 29° |
| 2026-05-04 05:48 | 68.00107 | 19.73909 | 36593 ft | 502 kts | 29° |
| 2026-05-04 05:48 | 68.06045 | 19.83732 | 36591 ft | 502 kts | 29° |
| 2026-05-04 05:49 | 68.11972 | 19.93599 | 36599 ft | 501 kts | 30° |
| 2026-05-04 05:49 | 68.17886 | 20.03506 | 36608 ft | 501 kts | 30° |
| 2026-05-04 05:51 | 68.41478 | 20.43625 | 36620 ft | 501 kts | 30° |
| 2026-05-04 05:52 | 68.47364 | 20.53789 | 36620 ft | 501 kts | 30° |
| 2026-05-04 05:52 | 68.53248 | 20.64008 | 36617 ft | 501 kts | 30° |
| 2026-05-04 05:54 | 68.75508 | 21.03261 | 36400 ft | 484 kts | 31° |
| 2026-05-04 05:55 | 68.78338 | 21.08322 | 35877 ft | 484 kts | 31° |
| 2026-05-04 05:55 | 68.81156 | 21.13377 | 35304 ft | 483 kts | 31° |
| 2026-05-04 05:55 | 68.83979 | 21.18455 | 34674 ft | 484 kts | 31° |
| 2026-05-04 05:55 | 68.86807 | 21.23557 | 33999 ft | 486 kts | 31° |
| 2026-05-04 05:56 | 68.89648 | 21.28697 | 33256 ft | 489 kts | 31° |
| 2026-05-04 05:56 | 68.92496 | 21.33867 | 32490 ft | 489 kts | 31° |
| 2026-05-04 05:56 | 68.95340 | 21.39048 | 31750 ft | 489 kts | 31° |
| 2026-05-04 05:56 | 68.98179 | 21.44236 | 31196 ft | 486 kts | 31° |
| 2026-05-04 05:57 | 69.00982 | 21.49377 | 30696 ft | 480 kts | 31° |
| 2026-05-04 05:57 | 69.03764 | 21.54493 | 30197 ft | 475 kts | 31° |
| 2026-05-04 05:57 | 69.06508 | 21.59552 | 29709 ft | 471 kts | 31° |
| 2026-05-04 05:57 | 69.09231 | 21.64589 | 29106 ft | 466 kts | 31° |
| 2026-05-04 05:58 | 69.11916 | 21.69568 | 28585 ft | 460 kts | 31° |
| 2026-05-04 05:58 | 69.14530 | 21.74427 | 28092 ft | 454 kts | 31° |
| 2026-05-04 05:58 | 69.17176 | 21.79364 | 27583 ft | 448 kts | 31° |
| 2026-05-04 05:58 | 69.19719 | 21.84124 | 27091 ft | 443 kts | 31° |
| 2026-05-04 05:59 | 69.22268 | 21.88910 | 26602 ft | 438 kts | 31° |
| 2026-05-04 05:59 | 69.24788 | 21.93656 | 26111 ft | 434 kts | 31° |
| 2026-05-04 05:59 | 69.27284 | 21.98367 | 25630 ft | 430 kts | 31° |
| 2026-05-04 05:59 | 69.29754 | 22.03044 | 25160 ft | 426 kts | 31° |
| 2026-05-04 06:00 | 69.32200 | 22.07688 | 24695 ft | 422 kts | 31° |
| 2026-05-04 06:00 | 69.34633 | 22.12319 | 24222 ft | 419 kts | 31° |
| 2026-05-04 06:00 | 69.37044 | 22.16919 | 23767 ft | 416 kts | 31° |
| 2026-05-04 06:00 | 69.39436 | 22.21497 | 23315 ft | 414 kts | 31° |
| 2026-05-04 06:01 | 69.41814 | 22.26060 | 22763 ft | 411 kts | 31° |
| 2026-05-04 06:01 | 69.44173 | 22.30600 | 22255 ft | 408 kts | 31° |
| 2026-05-04 06:03 | 69.59830 | 22.62690 | 19118 ft | 389 kts | 41° |
| 2026-05-04 06:03 | 69.61759 | 22.68078 | 18682 ft | 387 kts | 43° |
| 2026-05-04 06:05 | 69.74975 | 23.05057 | 15647 ft | 369 kts | 43° |
| 2026-05-04 06:05 | 69.78654 | 23.15274 | 14799 ft | 364 kts | 43° |
| 2026-05-04 06:05 | 69.80448 | 23.20274 | 14397 ft | 362 kts | 43° |
| 2026-05-04 06:06 | 69.82255 | 23.25322 | 13992 ft | 359 kts | 43° |
| 2026-05-04 06:06 | 69.84045 | 23.30337 | 13573 ft | 357 kts | 43° |
| 2026-05-04 06:06 | 69.85826 | 23.35336 | 13146 ft | 355 kts | 43° |
| 2026-05-04 06:06 | 69.87591 | 23.40306 | 12722 ft | 352 kts | 43° |
| 2026-05-04 06:07 | 69.89338 | 23.45236 | 12326 ft | 348 kts | 43° |
| 2026-05-04 06:07 | 69.91066 | 23.50127 | 11929 ft | 345 kts | 43° |
| 2026-05-04 06:07 | 69.92781 | 23.54989 | 11528 ft | 343 kts | 44° |
| 2026-05-04 06:07 | 69.94484 | 23.59831 | 11117 ft | 341 kts | 44° |
| 2026-05-04 06:08 | 69.96173 | 23.64645 | 10726 ft | 339 kts | 44° |
| 2026-05-04 06:08 | 69.97853 | 23.69443 | 10337 ft | 337 kts | 44° |
| 2026-05-04 06:08 | 69.99517 | 23.74207 | 10092 ft | 331 kts | 44° |
| 2026-05-04 06:08 | 70.01137 | 23.78858 | 9954 ft | 322 kts | 44° |
| 2026-05-04 06:09 | 70.02711 | 23.83386 | 9818 ft | 313 kts | 44° |
| 2026-05-04 06:09 | 70.04246 | 23.87805 | 9682 ft | 304 kts | 44° |
| 2026-05-04 06:11 | 70.14281 | 24.16981 | 7831 ft | 284 kts | 45° |
| 2026-05-04 06:11 | 70.15683 | 24.21090 | 7543 ft | 284 kts | 45° |
| 2026-05-04 06:13 | 70.25095 | 24.48894 | 5654 ft | 261 kts | 45° |
| 2026-05-04 06:14 | 70.31092 | 24.73737 | 4884 ft | 230 kts | 102° |
| 2026-05-04 06:14 | 70.30732 | 24.78168 | 4898 ft | 213 kts | 107° |
| 2026-05-04 06:15 | 70.30337 | 24.82310 | 4740 ft | 206 kts | 108° |
| 2026-05-04 06:15 | 70.29948 | 24.86368 | 4519 ft | 204 kts | 108° |
| 2026-05-04 06:15 | 70.29297 | 24.89976 | 4267 ft | 198 kts | 143° |
| 2026-05-04 06:15 | 70.28076 | 24.91405 | 4141 ft | 187 kts | 172° |
| 2026-05-04 06:16 | 70.26783 | 24.92174 | 3913 ft | 192 kts | 169° |
| 2026-05-04 06:16 | 70.25480 | 24.92843 | 3688 ft | 186 kts | 175° |
| 2026-05-04 06:16 | 70.24224 | 24.93237 | 3463 ft | 176 kts | 176° |
| 2026-05-04 06:16 | 70.23044 | 24.93556 | 3277 ft | 167 kts | 177° |
| 2026-05-04 06:17 | 70.21880 | 24.93868 | 3114 ft | 169 kts | 177° |
| 2026-05-04 06:17 | 70.20722 | 24.94123 | 2848 ft | 164 kts | 178° |
| 2026-05-04 06:17 | 70.19630 | 24.94362 | 2636 ft | 150 kts | 177° |
| 2026-05-04 06:17 | 70.18593 | 24.94602 | 2380 ft | 147 kts | 177° |
| 2026-05-04 06:18 | 70.17584 | 24.94838 | 2162 ft | 145 kts | 176° |
| 2026-05-04 06:18 | 70.16575 | 24.95073 | 1929 ft | 146 kts | 176° |
| 2026-05-04 06:18 | 70.15568 | 24.95309 | 1723 ft | 144 kts | 175° |
| 2026-05-04 06:20 | 70.08685 | 24.96904 | 292 ft | 142 kts | 174° |
| 2026-05-04 06:20 | 70.07711 | 24.97157 | 64 ft | 141 kts | 175° |
| 2026-05-04 06:21 | 70.05754 | 24.97555 | 34 ft | 14 kts | 217° |
| 2026-05-04 06:21 | 70.05756 | 24.97303 | 33 ft | 14 kts | 312° |
| 2026-05-04 06:22 | 70.05804 | 24.97306 | 33 ft | 4 kts | 70° |
| 2026-05-04 06:22 | 70.05804 | 24.97311 | 33 ft | 0 kts | 76° |
| 2026-05-04 06:25 | 70.05804 | 24.97315 | 33 ft | 0 kts | 76° |